Time;durP1;ratioP1;P1;durP2;ratioP2;P2;SDS_P1;SDS_P2;PMS_P1;PMS_P2;Temp;Humidity;BMP_temperature;BMP_pressure;BME280_temperature;BME280_humidity;BME280_pressure;Samples;Min_cycle;Max_cycle;Signal;HPM_P1;HPM_P2
2023/01/12 05:03:40;;;;;;;5.55;0.90;;;8.10;99.90;;;;;;6091085;23;20189;-83
2023/01/12 05:06:06;;;;;;;0.52;0.52;;;8.10;99.90;;;;;;4915350;29;20243;-68
2023/01/12 05:11:16;;;;;;;3.75;0.73;;;8.10;99.90;;;;;;4918309;29;20457;-67
2023/01/12 05:13:42;;;;;;;1.57;0.90;;;8.20;99.90;;;;;;4902434;29;20213;-68
2023/01/12 05:16:14;;;;;;;7.13;1.53;;;8.20;99.90;;;;;;4936618;29;20231;-67
2023/01/12 05:18:40;;;;;;;1.33;0.82;;;8.30;99.90;;;;;;4919641;29;20448;-68
2023/01/12 05:21:05;;;;;;;4.90;1.08;;;8.20;99.90;;;;;;4936782;29;20198;-68
2023/01/12 05:23:31;;;;;;;0.97;0.80;;;8.20;99.90;;;;;;4936218;29;20167;-68
2023/01/12 05:26:01;;;;;;;5.63;1.33;;;8.20;99.90;;;;;;4936538;29;20180;-67
2023/01/12 05:28:30;;;;;;;3.25;1.63;;;8.30;99.90;;;;;;4936379;29;20173;-68
2023/01/12 05:31:02;;;;;;;0.73;0.60;;;8.30;99.90;;;;;;4936480;29;20258;-67
2023/01/12 05:33:28;;;;;;;1.95;1.20;;;8.30;99.90;;;;;;4933909;29;20177;-68
2023/01/12 05:35:53;;;;;;;4.50;0.80;;;8.30;99.90;;;;;;4935652;29;20180;-68
2023/01/12 05:38:19;;;;;;;3.80;0.90;;;8.40;99.90;;;;;;4919341;29;20541;-67
2023/01/12 05:40:45;;;;;;;0.90;0.80;;;8.40;99.90;;;;;;4936525;29;20516;-66
2023/01/12 05:46:00;;;;;;;5.85;1.30;;;8.40;99.90;;;;;;4936101;29;20232;-68
2023/01/12 05:48:26;;;;;;;1.88;0.88;;;8.50;99.90;;;;;;4936063;29;20571;-69
2023/01/12 05:50:51;;;;;;;1.53;0.90;;;8.50;99.90;;;;;;4935446;29;20161;-68
2023/01/12 05:53:17;;;;;;;2.93;0.87;;;8.50;99.90;;;;;;4935811;29;20164;-69
2023/01/12 05:55:43;;;;;;;1.80;1.10;;;8.60;99.90;;;;;;4936229;29;20190;-68
2023/01/12 05:58:08;;;;;;;1.00;0.90;;;8.60;99.90;;;;;;4918990;29;20678;-69
2023/01/12 06:00:34;;;;;;;1.47;0.90;;;8.60;99.90;;;;;;4936096;29;20177;-68
2023/01/12 06:03:01;;;;;;;2.43;1.10;;;8.60;99.90;;;;;;4918702;29;20188;-68
2023/01/12 06:05:27;;;;;;;0.85;0.85;;;8.60;99.90;;;;;;4935812;29;20215;-68
2023/01/12 06:07:52;;;;;;;0.83;0.70;;;8.60;99.90;;;;;;4935910;29;20253;-68
2023/01/12 06:10:18;;;;;;;2.30;1.20;;;8.70;99.90;;;;;;4935947;29;20552;-67
2023/01/12 06:15:30;;;;;;;1.95;0.70;;;8.70;99.90;;;;;;4935939;29;20570;-67
2023/01/12 06:17:56;;;;;;;3.35;1.25;;;8.70;99.90;;;;;;4936163;29;20209;-67
2023/01/12 06:20:22;;;;;;;2.93;0.97;;;8.60;99.90;;;;;;4935794;29;20222;-68
2023/01/12 06:22:47;;;;;;;9.20;1.27;;;8.50;99.90;;;;;;4934837;29;20212;-68
2023/01/12 06:25:15;;;;;;;2.90;1.27;;;8.50;99.90;;;;;;4935835;29;20199;-68
2023/01/12 06:27:41;;;;;;;1.52;0.95;;;8.40;99.90;;;;;;4935742;29;20178;-67
2023/01/12 06:30:08;;;;;;;1.30;1.10;;;8.40;99.90;;;;;;4936144;29;20180;-67
2023/01/12 06:32:34;;;;;;;2.95;2.00;;;8.40;99.90;;;;;;4935770;29;20178;-67
2023/01/12 06:35:01;;;;;;;4.25;1.08;;;8.40;99.90;;;;;;4935990;29;20194;-68
2023/01/12 06:37:27;;;;;;;5.25;1.63;;;8.40;99.90;;;;;;4934427;29;20290;-67
2023/01/12 06:39:52;;;;;;;3.20;0.97;;;8.50;99.90;;;;;;4936015;29;20212;-68
2023/01/12 06:42:30;;;;;;;0.50;0.50;;;8.50;99.90;;;;;;4936513;29;20181;-69
2023/01/12 06:45:02;;;;;;;1.17;0.90;;;8.50;99.90;;;;;;4918693;29;20292;-69
2023/01/12 06:47:29;;;;;;;1.20;1.10;;;8.60;99.90;;;;;;4918736;29;20184;-67
2023/01/12 06:49:55;;;;;;;1.95;0.82;;;8.60;99.90;;;;;;4935836;29;20197;-67
2023/01/12 06:52:23;;;;;;;1.10;1.07;;;8.60;99.90;;;;;;4936457;29;20239;-68
2023/01/12 06:54:49;;;;;;;1.55;0.80;;;8.60;99.90;;;;;;4935682;29;20471;-70
2023/01/12 06:57:15;;;;;;;0.40;0.40;;;8.60;99.90;;;;;;4937880;29;20196;-68
2023/01/12 06:59:41;;;;;;;3.37;0.70;;;8.70;99.90;;;;;;4939119;29;20248;-68
2023/01/12 07:02:11;;;;;;;3.60;0.77;;;8.60;99.90;;;;;;4939797;29;20180;-68
2023/01/12 07:04:39;;;;;;;3.75;0.95;;;8.70;99.90;;;;;;4941804;29;20268;-67
2023/01/12 07:07:05;;;;;;;1.70;1.02;;;8.70;99.90;;;;;;4941975;29;20187;-68
2023/01/12 07:09:31;;;;;;;3.10;0.70;;;8.70;99.90;;;;;;4941145;29;20632;-67
2023/01/12 07:11:57;;;;;;;3.08;1.98;;;8.70;99.90;;;;;;4940153;29;20188;-63
2023/01/12 07:14:23;;;;;;;1.83;1.00;;;8.70;99.90;;;;;;4938841;29;20288;-67
2023/01/12 07:16:49;;;;;;;0.83;0.83;;;8.80;99.90;;;;;;4938699;29;20201;-69
2023/01/12 07:19:14;;;;;;;8.73;1.73;;;8.80;99.90;;;;;;4939155;29;20416;-68
2023/01/12 07:21:40;;;;;;;3.07;0.87;;;8.80;99.90;;;;;;4939925;29;20624;-68
2023/01/12 07:24:06;;;;;;;1.83;0.80;;;8.90;99.90;;;;;;4922724;29;20204;-67
2023/01/12 07:26:31;;;;;;;1.10;0.73;;;8.90;99.90;;;;;;4940888;29;20184;-68
2023/01/12 07:28:57;;;;;;;0.73;0.73;;;8.90;99.90;;;;;;4940877;29;20205;-70
2023/01/12 07:31:22;;;;;;;3.37;3.03;;;8.90;99.90;;;;;;4941711;29;20178;-67
2023/01/12 07:33:52;;;;;;;2.87;0.50;;;8.90;99.90;;;;;;4939136;29;20221;-69
2023/01/12 07:36:18;;;;;;;4.25;1.05;;;9.00;99.90;;;;;;4940100;29;20208;-68
2023/01/12 07:38:44;;;;;;;1.05;0.93;;;9.00;99.90;;;;;;4938757;29;20169;-68
2023/01/12 07:42:22;;;;;;;1.73;0.60;;;9.10;99.90;;;;;;4936787;29;20174;-67
2023/01/12 07:43:55;;;;;;;2.78;2.55;;;9.10;99.90;;;;;;4937225;29;20197;-65
2023/01/12 07:46:21;;;;;;;3.60;1.37;;;9.20;99.90;;;;;;4936640;29;20663;-68
2023/01/12 07:48:47;;;;;;;1.47;0.90;;;9.20;99.90;;;;;;4938064;29;20436;-67
2023/01/12 07:51:12;;;;;;;2.00;1.73;;;9.20;99.90;;;;;;4921124;29;20215;-66
2023/01/12 07:53:38;;;;;;;2.37;1.40;;;9.20;99.90;;;;;;4936347;29;20279;-68
2023/01/12 07:56:04;;;;;;;1.53;1.07;;;9.20;99.90;;;;;;4937757;29;20188;-68
2023/01/12 07:58:30;;;;;;;2.60;0.97;;;9.30;99.90;;;;;;4941452;29;20183;-67
2023/01/12 08:00:59;;;;;;;2.80;1.42;;;9.30;99.90;;;;;;4931609;29;20177;-67
2023/01/12 08:03:26;;;;;;;0.88;0.82;;;9.30;99.90;;;;;;4920857;29;20177;-65
2023/01/12 08:05:52;;;;;;;1.95;0.93;;;9.30;99.90;;;;;;4937698;29;20552;-66
2023/01/12 08:08:18;;;;;;;0.73;0.60;;;9.40;99.90;;;;;;4938016;29;20277;-64
2023/01/12 08:10:46;;;;;;;3.83;2.00;;;9.30;99.90;;;;;;4937724;29;20264;-64
2023/01/12 08:13:12;;;;;;;1.10;0.88;;;9.30;99.90;;;;;;4937528;29;20169;-65
2023/01/12 08:15:48;;;;;;;0.80;0.80;;;9.30;99.90;;;;;;4936940;29;20189;-64
2023/01/12 08:18:22;;;;;;;2.38;0.85;;;9.40;99.90;;;;;;4937696;29;20452;-67
2023/01/12 08:20:49;;;;;;;1.30;0.68;;;9.40;99.90;;;;;;4937948;29;20173;-66
2023/01/12 08:23:19;;;;;;;0.65;0.60;;;9.40;99.90;;;;;;4937365;29;20632;-65
2023/01/12 08:25:53;;;;;;;1.58;0.82;;;9.40;99.90;;;;;;4935864;29;20245;-66
2023/01/12 08:28:26;;;;;;;1.30;1.00;;;9.40;99.90;;;;;;4937736;29;20587;-66
2023/01/12 08:30:53;;;;;;;0.60;0.60;;;9.40;99.90;;;;;;4932117;29;20200;-66
2023/01/12 08:33:22;;;;;;;3.22;1.15;;;9.40;99.90;;;;;;4937610;29;20173;-66
2023/01/12 08:35:48;;;;;;;1.13;1.00;;;9.40;99.90;;;;;;4937467;29;20205;-65
2023/01/12 08:38:14;;;;;;;0.93;0.60;;;9.40;99.90;;;;;;4937244;29;20236;-66
2023/01/12 08:46:08;;;;;;;3.60;0.63;;;9.50;99.90;;;;;;4937193;29;20690;-66
2023/01/12 08:48:35;;;;;;;2.00;0.80;;;9.50;99.90;;;;;;4936740;29;20173;-65
2023/01/12 08:51:01;;;;;;;0.60;0.60;;;9.50;99.90;;;;;;4937177;29;20174;-66
2023/01/12 08:53:27;;;;;;;0.60;0.52;;;9.50;99.90;;;;;;4936736;29;20181;-66
2023/01/12 08:55:52;;;;;;;1.00;0.80;;;9.50;99.90;;;;;;4937363;29;20683;-64
2023/01/12 08:58:18;;;;;;;1.90;0.90;;;9.50;99.90;;;;;;4937043;29;20229;-66
2023/01/12 09:00:44;;;;;;;0.83;0.83;;;9.60;99.90;;;;;;4937135;29;20405;-64
2023/01/12 09:03:09;;;;;;;1.03;0.90;;;9.60;99.90;;;;;;4935385;29;20173;-65
2023/01/12 09:05:35;;;;;;;1.20;1.10;;;9.60;99.90;;;;;;4936642;29;20244;-65
2023/01/12 09:08:00;;;;;;;4.63;0.93;;;9.60;99.90;;;;;;4936431;29;20200;-63
2023/01/12 09:10:26;;;;;;;1.40;0.53;;;9.60;99.90;;;;;;4936813;29;20659;-66
2023/01/12 09:12:52;;;;;;;1.80;0.80;;;9.60;99.90;;;;;;4936417;29;20174;-66
2023/01/12 09:15:17;;;;;;;6.37;0.83;;;9.60;99.90;;;;;;4936584;29;20682;-65
2023/01/12 09:17:43;;;;;;;2.60;0.50;;;9.60;99.90;;;;;;4936127;29;20201;-66
2023/01/12 09:20:10;;;;;;;0.50;0.50;;;9.60;99.90;;;;;;4936560;29;20513;-66
2023/01/12 09:22:35;;;;;;;2.75;0.93;;;9.70;99.90;;;;;;4936401;29;20169;-67
2023/01/12 09:25:01;;;;;;;0.73;0.70;;;9.70;99.90;;;;;;4935243;29;20199;-65
2023/01/12 09:27:27;;;;;;;0.50;0.50;;;9.70;99.90;;;;;;4936319;29;20636;-65
2023/01/12 09:29:52;;;;;;;0.80;0.80;;;9.70;99.90;;;;;;4936976;29;20177;-67
2023/01/12 09:32:19;;;;;;;1.77;1.67;;;9.70;99.90;;;;;;4935224;29;20174;-67
2023/01/12 09:34:47;;;;;;;3.03;1.10;;;9.70;99.90;;;;;;4936004;29;20193;-66
2023/01/12 09:37:13;;;;;;;1.20;0.63;;;9.70;99.90;;;;;;4936045;29;20292;-66
2023/01/12 09:39:38;;;;;;;2.47;0.73;;;9.80;99.90;;;;;;4936245;29;20192;-66
2023/01/12 09:47:51;;;;;;;0.80;0.80;;;9.80;99.90;;;;;;4936229;29;20256;-65
2023/01/12 09:50:46;;;;;;;3.20;1.08;;;9.90;99.90;;;;;;4936285;29;20188;-67
2023/01/12 09:53:15;;;;;;;2.95;0.82;;;10.00;99.90;;;;;;4936093;29;20181;-67
2023/01/12 09:55:44;;;;;;;0.60;0.50;;;10.00;99.90;;;;;;4936083;29;20189;-67
2023/01/12 09:58:43;;;;;;;2.03;1.20;;;10.00;99.90;;;;;;4935634;29;20205;-65
2023/01/12 10:01:11;;;;;;;0.55;0.55;;;10.10;99.90;;;;;;4936144;29;20176;-66
2023/01/12 10:03:40;;;;;;;4.50;1.05;;;10.20;99.90;;;;;;4935645;29;20167;-66
2023/01/12 10:06:13;;;;;;;0.60;0.57;;;10.20;99.90;;;;;;4934538;29;20204;-66
2023/01/12 10:08:49;;;;;;;1.40;0.57;;;10.30;99.90;;;;;;4936288;29;20154;-66
2023/01/12 10:11:23;;;;;;;1.05;0.65;;;10.40;99.90;;;;;;4936116;29;20161;-65
2023/01/12 10:13:51;;;;;;;3.30;1.20;;;10.40;99.90;;;;;;4935912;29;20233;-67
2023/01/12 10:16:43;;;;;;;3.22;0.88;;;10.40;99.90;;;;;;4936618;29;20534;-68
2023/01/12 10:19:24;;;;;;;1.65;0.60;;;10.40;99.90;;;;;;4936336;29;20253;-66
2023/01/12 10:21:52;;;;;;;0.50;0.50;;;10.50;99.90;;;;;;4936011;29;20231;-66
2023/01/12 10:24:21;;;;;;;1.83;1.17;;;10.60;99.90;;;;;;4937929;29;20243;-67
2023/01/12 10:26:55;;;;;;;3.08;1.30;;;10.60;99.90;;;;;;4936023;29;20179;-66
2023/01/12 10:29:21;;;;;;;2.05;0.70;;;10.70;99.90;;;;;;4937799;29;20185;-68
2023/01/12 10:31:46;;;;;;;3.90;1.30;;;10.70;99.90;;;;;;4942388;29;20559;-66
2023/01/12 10:34:12;;;;;;;1.57;0.70;;;10.70;99.90;;;;;;4940138;29;20421;-66
2023/01/12 10:36:42;;;;;;;1.87;0.50;;;10.80;99.90;;;;;;4939356;29;20281;-67
2023/01/12 10:39:29;;;;;;;1.85;0.70;;;10.70;99.90;;;;;;4941332;29;20406;-66
2023/01/12 10:45:19;;;;;;;1.20;0.88;;;10.80;99.90;;;;;;4940915;29;20240;-67
2023/01/12 10:47:45;;;;;;;0.30;0.30;;;11.00;99.90;;;;;;4922710;29;20229;-68
2023/01/12 10:50:30;;;;;;;1.23;0.60;;;11.00;99.90;;;;;;4939357;29;20175;-70
2023/01/12 10:52:59;;;;;;;1.40;1.08;;;11.10;99.90;;;;;;4938916;29;20417;-68
2023/01/12 10:55:32;;;;;;;0.73;0.50;;;11.20;99.90;;;;;;4921915;29;20208;-66
2023/01/12 10:57:59;;;;;;;0.80;0.65;;;11.20;99.90;;;;;;4939205;29;20487;-66
2023/01/12 11:00:26;;;;;;;0.88;0.88;;;11.20;99.90;;;;;;4939170;29;20170;-64
2023/01/12 11:02:52;;;;;;;0.80;0.60;;;11.20;99.90;;;;;;4938708;29;20180;-66
2023/01/12 11:05:36;;;;;;;1.40;0.60;;;11.20;99.90;;;;;;4938960;29;20213;-67
2023/01/12 11:08:21;;;;;;;2.58;0.80;;;11.20;99.90;;;;;;4938999;29;20209;-66
2023/01/12 11:10:47;;;;;;;0.50;0.50;;;11.20;99.90;;;;;;4938959;29;20178;-66
2023/01/12 11:13:35;;;;;;;1.83;0.60;;;11.10;99.90;;;;;;4938573;29;20184;-67
2023/01/12 11:16:21;;;;;;;2.97;0.70;;;11.10;99.90;;;;;;4923005;29;20260;-66
2023/01/12 11:19:08;;;;;;;1.95;1.25;;;11.10;99.90;;;;;;4938945;29;20215;-67
2023/01/12 11:21:39;;;;;;;0.60;0.60;;;11.20;99.90;;;;;;4938972;29;20177;-66
2023/01/12 11:24:15;;;;;;;1.73;0.50;;;11.20;99.90;;;;;;4938485;29;20191;-65
2023/01/12 11:27:05;;;;;;;0.60;0.60;;;11.20;99.90;;;;;;4939097;29;20766;-65
2023/01/12 11:29:47;;;;;;;0.68;0.50;;;11.10;99.90;;;;;;4938879;29;20160;-65
2023/01/12 11:32:44;;;;;;;1.60;0.50;;;11.10;99.90;;;;;;4939095;29;20549;-66
2023/01/12 11:35:33;;;;;;;3.25;0.82;;;11.00;99.90;;;;;;4879630;29;20211;-65
2023/01/12 11:38:12;;;;;;;1.70;0.60;;;11.00;99.90;;;;;;4864162;29;20207;-68
2023/01/12 11:40:40;;;;;;;0.40;0.30;;;10.90;99.90;;;;;;4879868;29;20635;-66
2023/01/12 11:46:18;;;;;;;0.30;0.30;;;11.00;99.90;;;;;;4879798;29;20192;-66
2023/01/12 11:49:09;;;;;;;0.40;0.40;;;11.10;99.90;;;;;;4863363;29;20190;-66
2023/01/12 11:51:36;;;;;;;0.47;0.47;;;11.30;99.90;;;;;;4864222;29;20244;-66
2023/01/12 11:54:02;;;;;;;3.92;0.55;;;11.40;99.90;;;;;;4879141;29;20195;-66
2023/01/12 11:56:39;;;;;;;0.40;0.30;;;11.40;99.90;;;;;;4879466;29;20199;-66
2023/01/12 11:59:16;;;;;;;0.50;0.50;;;11.50;99.90;;;;;;4879737;29;20414;-66
2023/01/12 12:02:10;;;;;;;0.63;0.30;;;11.50;99.90;;;;;;4879972;29;20996;-66
2023/01/12 12:04:59;;;;;;;0.40;0.40;;;11.60;99.90;;;;;;4864898;29;20288;-67
2023/01/12 12:07:44;;;;;;;0.67;0.67;;;11.60;99.90;;;;;;4879046;29;20563;-66
2023/01/12 12:10:42;;;;;;;0.40;0.40;;;11.70;99.90;;;;;;4879904;29;20418;-67
2023/01/12 12:13:19;;;;;;;1.25;0.43;;;11.80;99.90;;;;;;4931776;29;20814;-66
2023/01/12 12:15:51;;;;;;;1.13;1.00;;;11.80;99.90;;;;;;4938176;29;20195;-66
2023/01/12 12:18:51;;;;;;;0.40;0.33;;;11.90;99.90;;;;;;4938117;29;20450;-66
2023/01/12 12:21:29;;;;;;;0.70;0.57;;;11.80;99.90;;;;;;4938237;29;20416;-64
2023/01/12 12:24:01;;;;;;;0.57;0.50;;;11.80;99.90;;;;;;4937202;29;20437;-66
2023/01/12 12:26:34;;;;;;;0.40;0.40;;;11.90;99.90;;;;;;4920315;29;20415;-66
2023/01/12 12:29:29;;;;;;;0.33;0.33;;;11.80;99.90;;;;;;4936585;29;20424;-67
2023/01/12 12:32:07;;;;;;;1.80;0.50;;;12.00;99.90;;;;;;4937703;29;20489;-66
2023/01/12 12:35:13;;;;;;;0.50;0.50;;;12.10;99.90;;;;;;4937505;29;20435;-65
2023/01/12 12:37:52;;;;;;;0.50;0.50;;;12.20;99.90;;;;;;4937777;29;20806;-66
2023/01/12 12:46:48;;;;;;;0.40;0.40;;;12.20;99.90;;;;;;4937655;29;20498;-65
2023/01/12 12:49:18;;;;;;;0.90;0.60;;;12.30;99.90;;;;;;4935894;29;20421;-66
2023/01/12 12:51:45;;;;;;;2.00;0.90;;;12.30;99.90;;;;;;4920060;29;20415;-66
2023/01/12 12:54:16;;;;;;;0.70;0.50;;;12.40;99.90;;;;;;4936888;29;20975;-65
2023/01/12 12:56:43;;;;;;;0.50;0.40;;;12.30;99.90;;;;;;4937371;29;20447;-66
2023/01/12 12:59:31;;;;;;;0.60;0.40;;;12.20;99.90;;;;;;4936958;29;20408;-66
2023/01/12 13:01:59;;;;;;;0.40;0.37;;;12.20;99.90;;;;;;4939223;29;20408;-66
2023/01/12 13:04:43;;;;;;;1.13;0.83;;;12.10;99.90;;;;;;4936371;29;20428;-66
2023/01/12 13:07:20;;;;;;;0.67;0.57;;;12.00;99.90;;;;;;4936840;29;20446;-66
2023/01/12 13:09:47;;;;;;;0.60;0.60;;;12.00;99.90;;;;;;4936619;29;20418;-66
2023/01/12 13:12:21;;;;;;;4.13;0.50;;;12.00;99.90;;;;;;4936973;29;20408;-66
2023/01/12 13:15:22;;;;;;;0.60;0.60;;;12.00;99.90;;;;;;4936531;29;20428;-66
2023/01/12 13:17:51;;;;;;;4.30;0.60;;;12.00;99.90;;;;;;4936890;29;20459;-66
2023/01/12 13:20:17;;;;;;;0.67;0.40;;;12.00;99.90;;;;;;4936751;29;20906;-66
2023/01/12 13:22:45;;;;;;;0.90;0.47;;;12.00;99.90;;;;;;4936591;29;20410;-66
2023/01/12 13:25:20;;;;;;;1.83;0.50;;;12.00;99.90;;;;;;4936596;29;20194;-67
2023/01/12 13:28:04;;;;;;;0.80;0.30;;;11.90;99.90;;;;;;4936706;29;20902;-66
2023/01/12 13:30:29;;;;;;;0.60;0.50;;;11.90;99.90;;;;;;4936844;29;20403;-65
2023/01/12 13:33:10;;;;;;;0.43;0.43;;;11.90;99.90;;;;;;4936286;29;20786;-66
2023/01/12 13:35:37;;;;;;;0.40;0.30;;;11.90;99.90;;;;;;4936384;29;20192;-66
2023/01/12 13:38:30;;;;;;;0.50;0.50;;;11.80;99.90;;;;;;4936110;29;20485;-66
2023/01/12 13:44:13;;;;;;;1.03;0.40;;;11.80;99.90;;;;;;4936147;29;20483;-65
2023/01/12 13:46:44;;;;;;;2.00;0.40;;;11.80;99.90;;;;;;4935304;29;20455;-65
2023/01/12 13:49:32;;;;;;;0.50;0.50;;;11.70;99.90;;;;;;4936095;29;20408;-64
2023/01/12 13:52:04;;;;;;;0.40;0.40;;;11.70;99.90;;;;;;4936281;29;20489;-66
2023/01/12 13:54:31;;;;;;;0.43;0.43;;;11.70;99.90;;;;;;4935923;29;20526;-66
2023/01/12 13:57:01;;;;;;;0.40;0.30;;;11.60;99.90;;;;;;4934775;29;20555;-66
2023/01/12 13:59:28;;;;;;;0.57;0.57;;;11.60;99.90;;;;;;4936291;29;20461;-67
2023/01/12 14:01:54;;;;;;;0.50;0.50;;;11.60;99.90;;;;;;4936076;29;20414;-69
2023/01/12 14:04:34;;;;;;;0.50;0.50;;;11.50;99.90;;;;;;4935733;29;20556;-68
2023/01/12 14:07:12;;;;;;;3.70;0.40;;;11.40;99.90;;;;;;4936053;29;20187;-67
2023/01/12 14:09:41;;;;;;;2.17;0.53;;;11.40;99.90;;;;;;4936018;29;20411;-68
2023/01/12 14:12:10;;;;;;;1.07;0.97;;;11.30;99.90;;;;;;4919271;29;20913;-67
2023/01/12 14:17:56;;;;;;;0.60;0.60;;;11.30;99.90;;;;;;4939877;29;20444;-66
2023/01/12 14:20:26;;;;;;;0.83;0.50;;;11.30;99.90;;;;;;4940184;29;20407;-67
2023/01/12 14:23:26;;;;;;;0.50;0.50;;;11.30;99.90;;;;;;4938243;29;20424;-68
2023/01/12 14:26:12;;;;;;;0.50;0.40;;;11.20;99.90;;;;;;4939657;29;20536;-68
2023/01/12 14:28:41;;;;;;;1.43;0.73;;;11.20;99.90;;;;;;4922586;29;20418;-66
2023/01/12 14:31:15;;;;;;;0.40;0.40;;;11.20;99.90;;;;;;4939696;29;20410;-69
2023/01/12 14:33:51;;;;;;;0.40;0.40;;;11.10;99.90;;;;;;4939480;29;20180;-68
2023/01/12 14:36:33;;;;;;;0.50;0.50;;;11.20;99.90;;;;;;4939653;29;20165;-69
2023/01/12 14:38:59;;;;;;;0.35;0.35;;;11.10;99.90;;;;;;4939758;29;20525;-68
2023/01/12 14:47:23;;;;;;;0.65;0.40;;;11.10;99.90;;;;;;4939678;29;20272;-68
2023/01/12 14:49:49;;;;;;;0.80;0.80;;;11.10;99.90;;;;;;4939304;29;20174;-68
2023/01/12 14:52:32;;;;;;;0.57;0.43;;;11.00;99.90;;;;;;4939455;29;20173;-68
2023/01/12 14:55:18;;;;;;;0.50;0.40;;;11.00;99.90;;;;;;4939216;29;20640;-66
2023/01/12 14:57:49;;;;;;;0.40;0.40;;;11.00;99.90;;;;;;4939394;29;20633;-67
2023/01/12 15:00:24;;;;;;;1.38;0.73;;;10.90;99.90;;;;;;4939456;29;20256;-69
2023/01/12 15:02:53;;;;;;;0.60;0.57;;;10.90;99.90;;;;;;4938725;29;20171;-66
2023/01/12 15:05:24;;;;;;;1.38;0.65;;;10.80;99.90;;;;;;4938936;29;20205;-68
2023/01/12 15:07:54;;;;;;;0.35;0.35;;;10.80;99.90;;;;;;4939030;29;20656;-67
2023/01/12 15:10:20;;;;;;;1.50;0.75;;;10.80;99.90;;;;;;4938989;29;20539;-68
2023/01/12 15:12:50;;;;;;;0.77;0.60;;;10.80;99.90;;;;;;4938534;29;20261;-69
2023/01/12 15:25:34;;;;;;;0.60;0.60;;;10.80;99.90;;;;;;4938790;29;20283;-69
2023/01/12 15:26:32;;;;;;;0.80;0.80;;;10.80;99.90;;;;;;4938606;29;20307;-69
2023/01/12 15:28:57;;;;;;;0.50;0.40;;;10.80;99.90;;;;;;4938770;29;20626;-67
2023/01/12 15:31:30;;;;;;;0.60;0.60;;;10.80;99.90;;;;;;4938622;29;20179;-70
2023/01/12 15:33:56;;;;;;;0.45;0.45;;;10.80;99.90;;;;;;4938170;29;20199;-71
2023/01/12 15:36:21;;;;;;;0.37;0.37;;;10.70;99.90;;;;;;4938455;29;20181;-66
2023/01/12 15:38:47;;;;;;;0.50;0.50;;;10.70;99.90;;;;;;4938640;29;20201;-67
2023/01/12 15:44:16;;;;;;;0.40;0.40;;;10.70;99.90;;;;;;4938468;29;20208;-66
2023/01/12 15:46:42;;;;;;;0.60;0.55;;;10.70;99.90;;;;;;4938299;29;20169;-66
2023/01/12 15:49:09;;;;;;;0.50;0.50;;;10.70;99.90;;;;;;4938552;29;20633;-67
2023/01/12 15:51:35;;;;;;;1.58;0.68;;;10.70;99.90;;;;;;4938246;29;20667;-68
2023/01/12 15:54:02;;;;;;;2.10;0.63;;;10.70;99.90;;;;;;4937828;29;20205;-67
2023/01/12 15:56:27;;;;;;;0.50;0.47;;;10.70;99.90;;;;;;4938340;29;20418;-68
2023/01/12 15:58:53;;;;;;;0.40;0.40;;;10.60;99.90;;;;;;4938314;29;20184;-68
2023/01/12 16:01:21;;;;;;;0.40;0.40;;;10.60;99.90;;;;;;4938157;29;20174;-69
2023/01/12 16:03:47;;;;;;;0.43;0.40;;;10.60;99.90;;;;;;4937830;29;20571;-67
2023/01/12 16:06:12;;;;;;;1.17;0.50;;;10.60;99.90;;;;;;4937825;29;20217;-68
2023/01/12 16:08:38;;;;;;;0.50;0.50;;;10.60;99.90;;;;;;4937289;29;20185;-68
2023/01/12 16:11:16;;;;;;;1.43;0.40;;;10.60;99.90;;;;;;4937843;29;20169;-68
2023/01/12 16:13:43;;;;;;;0.88;0.50;;;10.60;99.90;;;;;;4937416;29;20203;-71
2023/01/12 16:16:14;;;;;;;1.20;1.02;;;10.50;99.90;;;;;;4938005;29;20225;-67
2023/01/12 16:18:40;;;;;;;0.73;0.50;;;10.50;99.90;;;;;;4938139;29;20194;-67
2023/01/12 16:21:05;;;;;;;0.87;0.60;;;10.50;99.90;;;;;;4937638;29;20547;-67
2023/01/12 16:23:32;;;;;;;1.17;0.60;;;10.50;99.90;;;;;;4935820;29;20273;-69
2023/01/12 16:25:59;;;;;;;2.17;0.82;;;10.50;99.90;;;;;;4937798;29;20248;-68
2023/01/12 16:28:26;;;;;;;1.30;0.77;;;10.50;99.90;;;;;;4937620;29;20552;-69
2023/01/12 16:30:53;;;;;;;0.90;0.80;;;10.50;99.90;;;;;;4937622;29;20193;-69
2023/01/12 16:33:20;;;;;;;2.65;0.50;;;10.50;99.90;;;;;;4937290;29;20170;-69
2023/01/12 16:35:45;;;;;;;2.35;0.70;;;10.50;99.90;;;;;;4936805;29;20197;-69
2023/01/12 16:38:15;;;;;;;0.40;0.40;;;10.50;99.90;;;;;;4937362;29;20705;-68
2023/01/12 16:40:42;;;;;;;1.90;0.57;;;10.50;99.90;;;;;;4937658;29;20193;-68
2023/01/12 16:43:09;;;;;;;0.95;0.45;;;10.50;99.90;;;;;;4937226;29;20177;-67
2023/01/12 16:45:41;;;;;;;1.23;0.50;;;10.50;99.90;;;;;;4937212;29;20201;-69
2023/01/12 16:48:07;;;;;;;0.80;0.50;;;10.50;99.90;;;;;;4937091;29;20185;-68
2023/01/12 16:50:33;;;;;;;2.37;1.23;;;10.50;99.90;;;;;;4937203;29;20217;-68
2023/01/12 16:52:59;;;;;;;1.15;0.57;;;10.50;99.90;;;;;;4936722;29;20415;-70
2023/01/12 16:55:24;;;;;;;0.60;0.60;;;10.50;99.90;;;;;;4937036;29;20657;-63
2023/01/12 16:57:50;;;;;;;0.50;0.50;;;10.50;99.90;;;;;;4936931;29;20201;-65
2023/01/12 17:00:16;;;;;;;0.50;0.50;;;10.50;99.90;;;;;;4936104;29;20173;-66
2023/01/12 17:02:41;;;;;;;0.85;0.85;;;10.50;99.90;;;;;;4935904;29;20641;-69
2023/01/12 17:05:08;;;;;;;1.50;0.87;;;10.50;99.90;;;;;;4936347;29;20209;-67
2023/01/12 17:07:34;;;;;;;3.33;1.80;;;10.50;99.90;;;;;;4935828;29;20177;-68
2023/01/12 17:10:00;;;;;;;0.83;0.80;;;10.50;99.90;;;;;;4936234;29;20265;-67
2023/01/12 17:12:25;;;;;;;0.93;0.60;;;10.50;99.90;;;;;;4936607;29;20189;-67
2023/01/12 17:14:51;;;;;;;0.90;0.90;;;10.50;99.90;;;;;;4936469;29;20201;-69
2023/01/12 17:17:17;;;;;;;2.37;0.60;;;10.50;99.90;;;;;;4936435;29;20189;-68
2023/01/12 17:19:43;;;;;;;1.17;1.10;;;10.50;99.90;;;;;;4936706;29;20169;-68
2023/01/12 17:22:10;;;;;;;0.35;0.35;;;10.50;99.90;;;;;;4937071;29;20178;-67
2023/01/12 17:24:39;;;;;;;0.73;0.73;;;10.50;99.90;;;;;;4936759;29;20207;-68
2023/01/12 17:27:05;;;;;;;0.57;0.57;;;10.50;99.90;;;;;;4937228;29;20170;-68
2023/01/12 17:29:32;;;;;;;0.47;0.47;;;10.50;99.90;;;;;;4938410;29;20177;-69
2023/01/12 17:32:02;;;;;;;3.25;0.52;;;10.50;99.90;;;;;;4937305;29;20186;-68
2023/01/12 17:34:29;;;;;;;0.65;0.65;;;10.50;99.90;;;;;;4937267;29;20216;-67
2023/01/12 17:36:56;;;;;;;3.20;1.17;;;10.50;99.90;;;;;;4939816;29;20200;-68
2023/01/12 17:39:22;;;;;;;1.40;1.00;;;10.50;99.90;;;;;;4939383;29;20650;-68
2023/01/12 17:44:33;;;;;;;1.05;0.80;;;10.50;99.90;;;;;;4936258;29;20239;-68
2023/01/12 17:46:58;;;;;;;0.70;0.60;;;10.50;99.90;;;;;;4934971;29;20187;-68
2023/01/12 17:49:24;;;;;;;0.87;0.87;;;10.50;99.90;;;;;;4936899;29;20256;-70
2023/01/12 17:51:49;;;;;;;0.50;0.50;;;10.50;99.90;;;;;;4937608;29;20170;-70
2023/01/12 17:54:15;;;;;;;0.83;0.80;;;10.50;99.90;;;;;;4937864;29;20241;-69
2023/01/12 17:56:41;;;;;;;0.83;0.83;;;10.50;99.90;;;;;;4939187;29;20204;-70
2023/01/12 17:59:11;;;;;;;0.70;0.50;;;10.50;99.90;;;;;;4937001;29;20505;-69
2023/01/12 18:01:36;;;;;;;0.50;0.50;;;10.50;99.90;;;;;;4937432;29;20175;-69
2023/01/12 18:04:03;;;;;;;0.40;0.40;;;10.60;99.90;;;;;;4935993;29;20248;-68
2023/01/12 18:06:29;;;;;;;0.60;0.60;;;10.50;99.90;;;;;;4936019;29;20235;-68
2023/01/12 18:08:55;;;;;;;0.60;0.60;;;10.50;99.90;;;;;;4936273;29;20181;-64
2023/01/12 18:11:21;;;;;;;0.57;0.57;;;10.50;99.90;;;;;;4919337;29;20221;-64
2023/01/12 18:13:47;;;;;;;0.97;0.77;;;10.60;99.90;;;;;;4935691;29;20193;-64
2023/01/12 18:16:14;;;;;;;0.70;0.70;;;10.60;99.90;;;;;;4935955;29;20485;-64
2023/01/12 18:18:43;;;;;;;0.40;0.40;;;10.60;99.90;;;;;;4937102;29;20205;-64
2023/01/12 18:21:14;;;;;;;0.50;0.50;;;10.60;99.90;;;;;;4935728;29;20643;-64
2023/01/12 18:23:42;;;;;;;1.73;0.77;;;10.70;99.90;;;;;;4934842;29;20174;-68
2023/01/12 18:26:29;;;;;;;0.60;0.60;;;10.70;99.90;;;;;;4916993;29;20206;-68
2023/01/12 18:28:56;;;;;;;0.50;0.43;;;10.70;99.90;;;;;;4934141;29;20185;-67
2023/01/12 18:31:24;;;;;;;0.70;0.70;;;10.70;99.90;;;;;;4935862;29;20266;-66
2023/01/12 18:33:53;;;;;;;0.50;0.50;;;10.70;99.90;;;;;;4933688;29;20537;-66
2023/01/12 18:36:22;;;;;;;0.82;0.60;;;10.70;99.90;;;;;;4935750;29;20213;-66
2023/01/12 18:38:49;;;;;;;0.80;0.80;;;10.70;99.90;;;;;;4935771;29;20173;-66
2023/01/12 18:44:04;;;;;;;0.90;0.43;;;10.70;99.90;;;;;;4935330;29;20224;-65
2023/01/12 18:49:20;;;;;;;2.00;0.80;;;10.70;99.90;;;;;;4935475;29;20197;-66
2023/01/12 18:54:30;;;;;;;1.55;1.00;;;10.70;99.90;;;;;;4935465;29;20205;-66
2023/01/12 18:56:55;;;;;;;1.17;0.73;;;10.80;99.90;;;;;;4935779;29;20564;-64
2023/01/12 18:59:21;;;;;;;1.43;1.33;;;10.80;99.90;;;;;;4937822;29;20175;-65
2023/01/12 19:01:47;;;;;;;0.65;0.65;;;10.70;99.90;;;;;;4939205;29;20213;-66
2023/01/12 19:04:14;;;;;;;1.00;0.80;;;10.70;99.90;;;;;;4938675;29;20561;-65
2023/01/12 19:06:44;;;;;;;0.43;0.43;;;10.70;99.90;;;;;;4939106;29;20616;-65
2023/01/12 19:11:55;;;;;;;1.35;0.68;;;10.70;99.90;;;;;;4939156;29;20588;-66
2023/01/12 19:19:52;;;;;;;0.57;0.57;;;10.70;99.90;;;;;;4939236;29;20197;-66
2023/01/12 19:30:32;;;;;;;0.60;0.60;;;10.80;99.90;;;;;;4939003;29;20219;-65
2023/01/12 19:32:59;;;;;;;1.00;0.63;;;10.80;99.90;;;;;;4937027;29;20220;-66